Time;durP1;ratioP1;P1;durP2;ratioP2;P2;SDS_P1;SDS_P2;PMS_P1;PMS_P2;Temp;Humidity;BMP_temperature;BMP_pressure;BME280_temperature;BME280_humidity;BME280_pressure;Samples;Min_cycle;Max_cycle;Signal;HPM_P1;HPM_P2
2023/11/07 00:13:59;;;;;;;12.10;6.60;;;;;;;11.16;99.63;99522.14;678853;1262;139596;-81
2023/11/07 00:29:02;;;;;;;17.50;7.90;;;;;;;11.10;99.91;99530.97;675089;1260;138780;-81
2023/11/07 00:44:06;;;;;;;15.10;7.90;;;;;;;11.05;99.97;99547.22;676399;1261;139256;-81
2023/11/07 00:59:09;;;;;;;11.50;6.30;;;;;;;11.07;98.75;99555.46;677371;1262;138850;-81
2023/11/07 01:14:12;;;;;;;10.90;5.10;;;;;;;11.11;97.72;99556.59;679676;1261;139103;-81
2023/11/07 01:29:21;;;;;;;12.80;5.90;;;;;;;11.12;96.62;99559.49;678833;1263;139525;-82
2023/11/07 01:44:28;;;;;;;17.70;6.20;;;;;;;11.11;96.51;99553.84;678934;1262;139497;-81
2023/11/07 01:59:32;;;;;;;14.60;5.40;;;;;;;11.18;95.60;99556.84;677673;1271;139781;-82
2023/11/07 02:14:36;;;;;;;8.20;4.80;;;;;;;11.15;95.59;99568.50;678112;1273;140319;-82
2023/11/07 02:29:40;;;;;;;16.30;5.70;;;;;;;11.12;95.23;99569.77;675129;1264;138512;-81
2023/11/07 02:44:44;;;;;;;10.30;5.40;;;;;;;11.07;95.13;99565.60;675942;1263;139319;-82
2023/11/07 02:59:48;;;;;;;12.50;5.20;;;;;;;11.09;94.45;99583.10;676635;1264;139500;-82
2023/11/07 03:23:42;;;;;;;11.50;5.00;;;;;;;10.93;94.56;99593.39;656199;1307;545113;-81
2023/11/07 03:38:46;;;;;;;13.40;5.70;;;;;;;10.81;94.93;99601.56;670914;1275;139527;-80
2023/11/07 03:53:49;;;;;;;18.20;7.20;;;;;;;10.64;95.65;99608.55;669316;1275;138686;-80
2023/11/07 04:08:53;;;;;;;9.30;5.50;;;;;;;10.47;96.61;99615.39;673790;1273;138263;-81
2023/11/07 04:23:56;;;;;;;21.20;10.70;;;;;;;10.49;97.00;99606.83;672254;1269;138659;-81
2023/11/07 04:39:00;;;;;;;10.80;5.80;;;;;;;10.44;97.54;99617.96;666757;1275;138917;-82
2023/11/07 04:54:03;;;;;;;11.10;5.60;;;;;;;10.37;99.04;99629.48;669633;1275;138831;-81
2023/11/07 05:09:08;;;;;;;11.80;5.70;;;;;;;10.20;99.86;99643.21;666426;1278;138223;-81
2023/11/07 05:46:08;;;;;;;20.10;10.40;;;;;;;10.10;99.97;99663.05;657148;1301;545282;-80
2023/11/07 06:01:11;;;;;;;17.10;7.90;;;;;;;10.17;99.84;99677.67;671330;1274;138762;-79
2023/11/07 06:16:15;;;;;;;11.90;7.40;;;;;;;10.19;100.00;99693.23;667233;1278;139476;-80
2023/11/07 06:31:24;;;;;;;15.00;8.30;;;;;;;10.22;100.00;99709.44;668081;1274;139548;-81
2023/11/07 06:46:27;;;;;;;;;;;;;;;10.48;100.00;99722.30;676476;1271;139194;-80
2023/11/07 07:01:30;;;;;;;15.70;8.20;;;;;;;10.82;99.84;99729.21;674031;1267;124761;-82
2023/11/07 07:16:33;;;;;;;11.30;6.60;;;;;;;10.95;99.95;99736.11;676478;1262;138523;-81
2023/11/07 07:31:37;;;;;;;10.50;4.90;;;;;;;11.25;99.50;99751.45;673857;1276;138546;-81
2023/11/07 07:46:42;;;;;;;11.10;4.80;;;;;;;12.01;97.71;99768.29;668161;1265;138310;-81
2023/11/07 08:01:45;;;;;;;16.90;7.80;;;;;;;12.10;94.76;99779.73;671799;1264;138590;-82
2023/11/07 08:16:52;;;;;;;8.50;4.50;;;;;;;12.30;93.35;99795.50;671145;1267;138204;-82
2023/11/07 08:44:36;;;;;;;9.40;5.40;;;;;;;13.05;90.46;99814.09;653941;1298;545268;-80
2023/11/07 08:59:44;;;;;;;5.40;2.80;;;;;;;14.35;83.09;99826.30;670526;1273;138615;-79
2023/11/07 09:14:48;;;;;;;6.40;3.80;;;;;;;13.58;81.59;99843.11;671261;1275;139027;-79
2023/11/07 09:29:55;;;;;;;7.90;3.80;;;;;;;13.29;82.84;99853.65;671045;1274;138370;-79
2023/11/07 09:44:59;;;;;;;14.50;7.30;;;;;;;13.18;83.53;99866.94;671678;1272;138389;-80
2023/11/07 10:00:08;;;;;;;9.20;4.20;;;;;;;13.06;84.96;99878.80;673312;1273;138416;-80
2023/11/07 10:15:20;;;;;;;14.00;7.10;;;;;;;13.35;85.09;99877.87;665427;1275;137900;-80
2023/11/07 10:30:53;;;;;;;8.50;4.50;;;;;;;13.24;85.21;99865.96;673095;1272;138941;-81
2023/11/07 10:46:00;;;;;;;5.50;3.20;;;;;;;14.07;83.69;99849.05;666569;1274;138999;-80
2023/11/07 11:01:06;;;;;;;16.60;10.70;;;;;;;14.17;80.83;99855.34;668567;1273;138645;-79
2023/11/07 11:16:12;;;;;;;11.80;5.40;;;;;;;14.00;81.46;99856.30;672125;1269;139545;-77
2023/11/07 11:31:24;;;;;;;8.20;4.30;;;;;;;14.29;80.28;99863.29;674096;1269;139575;-78
2023/11/07 11:46:37;;;;;;;7.80;5.40;;;;;;;14.24;79.78;99867.91;674434;1264;139157;-79
2023/11/07 12:01:55;;;;;;;12.40;4.50;;;;;;;14.50;79.51;99875.13;674025;1264;139445;-78
2023/11/07 12:16:59;;;;;;;19.10;8.10;;;;;;;14.68;77.01;99870.88;669093;1266;139423;-78
2023/11/07 12:32:04;;;;;;;9.70;5.60;;;;;;;15.05;77.07;99871.50;674714;1265;145786;-78
2023/11/07 12:47:09;;;;;;;58.40;34.00;;;;;;;15.02;76.00;99864.02;677482;1266;140728;-80
2023/11/07 13:02:12;;;;;;;14.20;4.10;;;;;;;15.17;74.97;99863.42;678219;1263;140469;-79
2023/11/07 13:17:16;;;;;;;20.70;7.20;;;;;;;14.90;73.27;99862.92;679899;1265;139072;-81
2023/11/07 13:32:19;;;;;;;11.30;5.00;;;;;;;14.72;74.12;99859.52;678997;1262;138912;-80
2023/11/07 13:47:24;;;;;;;12.60;5.20;;;;;;;14.60;74.81;99866.29;676743;1260;138948;-81
2023/11/07 14:02:28;;;;;;;5.80;2.90;;;;;;;14.43;74.78;99880.14;677765;1260;138678;-81
2023/11/07 14:17:32;;;;;;;14.20;6.20;;;;;;;14.54;75.06;99886.80;673189;1260;139148;-81
2023/11/07 14:32:40;;;;;;;47.60;29.90;;;;;;;14.54;75.33;99895.27;676652;1263;140162;-81
2023/11/07 14:47:47;;;;;;;10.10;7.10;;;;;;;14.43;75.24;99900.98;676846;1276;138832;-81
2023/11/07 15:02:51;;;;;;;15.70;9.20;;;;;;;14.21;75.90;99905.42;675160;1266;139908;-81
2023/11/07 15:18:00;;;;;;;20.80;12.50;;;;;;;14.10;76.46;99908.52;675439;1262;138955;-82
2023/11/07 15:33:05;;;;;;;24.00;12.50;;;;;;;13.88;77.33;99910.48;675078;1265;140122;-81
2023/11/07 15:48:09;;;;;;;32.60;14.70;;;;;;;13.53;78.93;99911.13;672668;1266;138774;-81
2023/11/07 16:03:14;;;;;;;23.70;12.10;;;;;;;13.41;80.28;99916.42;671648;1265;140063;-80
2023/11/07 16:18:19;;;;;;;20.90;12.10;;;;;;;13.33;81.21;99916.82;671940;1265;138809;-81
2023/11/07 16:33:24;;;;;;;34.20;18.80;;;;;;;12.97;82.63;99919.13;673172;1265;140865;-81
2023/11/07 16:48:27;;;;;;;13.80;9.50;;;;;;;12.53;84.74;99919.11;672817;1278;138821;-81
2023/11/07 17:03:32;;;;;;;55.50;25.00;;;;;;;12.26;86.52;99924.15;669154;1279;138407;-81
2023/11/07 17:18:40;;;;;;;19.70;9.60;;;;;;;12.28;87.15;99923.97;669659;1263;138696;-82
2023/11/07 17:33:44;;;;;;;24.50;12.60;;;;;;;12.31;86.97;99924.52;671997;1266;138622;-81
2023/11/07 17:48:50;;;;;;;37.80;17.50;;;;;;;12.29;87.03;99926.58;674262;1266;138691;-82
2023/11/07 18:03:56;;;;;;;26.30;13.50;;;;;;;12.19;87.63;99923.62;676629;1264;138779;-81
2023/11/07 18:19:00;;;;;;;25.00;12.60;;;;;;;12.30;88.00;99924.47;677878;1262;138751;-80
2023/11/07 18:34:04;;;;;;;26.70;17.00;;;;;;;12.36;88.60;99919.48;675080;1265;139757;-81
2023/11/07 18:49:24;;;;;;;37.40;18.10;;;;;;;12.36;89.13;99913.61;678577;1266;140807;-80
2023/11/07 19:04:27;;;;;;;32.70;17.70;;;;;;;12.50;89.25;99910.44;673622;1266;139170;-81
2023/11/07 19:19:32;;;;;;;32.90;13.60;;;;;;;12.57;89.11;99916.76;673926;1266;139117;-80
2023/11/07 19:34:36;;;;;;;92.30;40.20;;;;;;;12.82;87.67;99911.23;674275;1262;139431;-81
2023/11/07 19:49:40;;;;;;;21.30;11.20;;;;;;;12.74;87.57;99912.98;670767;1265;139598;-80
2023/11/07 20:04:44;;;;;;;18.60;9.40;;;;;;;12.58;87.80;99906.14;671958;1263;139287;-81
2023/11/07 20:19:47;;;;;;;21.90;12.60;;;;;;;12.20;87.88;99902.31;671656;1260;138943;-82
2023/11/07 20:34:56;;;;;;;28.50;14.70;;;;;;;11.77;88.57;99906.85;675943;1266;139416;-81
2023/11/07 20:50:00;;;;;;;26.00;12.60;;;;;;;11.43;90.49;99898.14;673539;1263;175226;-80
2023/11/07 21:05:04;;;;;;;22.00;11.20;;;;;;;11.49;91.15;99901.87;678103;1267;139045;-80
2023/11/07 21:20:10;;;;;;;22.60;10.20;;;;;;;11.68;91.52;99896.19;674166;1266;139226;-80
2023/11/07 21:35:18;;;;;;;20.70;10.60;;;;;;;11.73;91.91;99886.61;676172;1260;139945;-80
2023/11/07 21:50:21;;;;;;;21.30;11.00;;;;;;;11.84;91.64;99874.33;676375;1265;139192;-80
2023/11/07 22:05:25;;;;;;;18.50;9.20;;;;;;;11.89;91.40;99885.54;675387;1279;139215;-82
2023/11/07 22:20:28;;;;;;;16.00;9.50;;;;;;;11.86;91.31;99889.70;675963;1263;139662;-80
2023/11/07 22:35:33;;;;;;;17.30;9.20;;;;;;;11.73;92.16;99889.00;670182;1266;139205;-80
2023/11/07 22:50:36;;;;;;;18.20;10.10;;;;;;;11.71;92.37;99889.04;678156;1266;140187;-81
2023/11/07 23:05:40;;;;;;;19.90;11.90;;;;;;;11.77;92.36;99881.63;673847;1266;139663;-80
2023/11/07 23:20:44;;;;;;;21.70;12.10;;;;;;;11.87;91.49;99866.69;677405;1266;139496;-80
2023/11/07 23:35:47;;;;;;;22.20;12.20;;;;;;;11.82;91.68;99850.60;677977;1262;139447;-81
2023/11/07 23:50:50;;;;;;;20.90;12.00;;;;;;;11.81;91.69;99844.96;672417;1265;139632;-80
